Главная страница
METAR-TAF:

METAR-TAF

Аэропорты :

South Jersey Regional Airport

Mount Holly, Нью-Джерси, США

широта: 39-56-26N, долгота: 074-50-28W, высота над уровнем моря: 16 м

Текущие метеонаблюдения

Эта сводка был подготовлена 49 минут назад, в 13:54 UTC
Ветер 3 Узел от западный
Температура 4°C
Влажность 56%
Давление 1025 hPa
Видимость: 16.1 км
ясное небо

METAR: KVAY 151354Z AUTO 26003KT 10SM CLR 04/M04 A3028 RMK AO2 SLP255 T00441044 $

Время: 09:43 (14:43 UTC)


TAF: отсутствует

Метеонаблюдения и прогнозы для более 4000 аэропортов (сводки METAR и TAF).

Имеющиеся станции представлены на карте желтыми и красными точками.

Чтобы увидеть название станции, наведите на нее мышь.

Затем щелкните, чтобы увидеть метеонаблюдения и метеопрогнозы.

Управление картой: чтобы увеличить масштаб, щелкните зеленые кнопки с черным крестиком; чтобы уменьшить масштаб, щелкните зеленую кнопку с тире; для просмотра соседних карт щелкайте зеленые стрелки.


METAR-TAF: